createdAt,value
2022-07-30T00:00:03.044Z,0
2022-07-30T00:01:00.421Z,0
2022-07-30T00:02:00.171Z,0
2022-07-30T00:03:00.150Z,0
2022-07-30T00:04:00.499Z,0
2022-07-30T00:05:00.152Z,0
2022-07-30T00:06:03.637Z,0
2022-07-30T00:07:00.930Z,0
2022-07-30T00:08:00.165Z,0
2022-07-30T00:09:00.167Z,0
2022-07-30T00:10:00.177Z,0
2022-07-30T00:11:03.209Z,0
2022-07-30T00:12:03.933Z,0
2022-07-30T00:13:00.207Z,0
2022-07-30T00:14:00.177Z,0
2022-07-30T00:15:00.146Z,0
2022-07-30T00:16:00.185Z,0
2022-07-30T00:17:03.525Z,0
2022-07-30T00:18:00.633Z,0
2022-07-30T00:19:00.939Z,0
2022-07-30T00:20:01.549Z,0
2022-07-30T00:21:00.921Z,0
2022-07-30T00:22:03.056Z,0
2022-07-30T00:23:00.190Z,0
2022-07-30T00:24:08.843Z,0
2022-07-30T00:25:00.182Z,0
2022-07-30T00:26:00.175Z,0
2022-07-30T00:27:00.810Z,0
2022-07-30T00:28:00.162Z,0
2022-07-30T00:29:00.186Z,0
2022-07-30T00:30:00.227Z,0
2022-07-30T00:31:03.317Z,0
2022-07-30T00:32:00.175Z,0
2022-07-30T00:33:03.319Z,0
2022-07-30T00:34:00.202Z,0
2022-07-30T00:35:00.198Z,0
2022-07-30T00:36:00.190Z,0
2022-07-30T00:37:01.022Z,0
2022-07-30T00:38:00.223Z,0
2022-07-30T00:39:04.517Z,0
2022-07-30T00:40:00.197Z,0
2022-07-30T00:41:00.195Z,0
2022-07-30T00:42:00.197Z,0
2022-07-30T00:43:00.244Z,0
2022-07-30T00:44:03.090Z,0
2022-07-30T00:48:10.016Z,0
2022-07-30T00:49:00.683Z,0
2022-07-30T00:50:00.228Z,0
2022-07-30T00:51:02.157Z,0
2022-07-30T00:52:00.215Z,0
2022-07-30T00:53:00.252Z,0
2022-07-30T00:54:00.256Z,0
2022-07-30T00:55:03.365Z,0
2022-07-30T00:56:00.235Z,0
2022-07-30T00:57:01.570Z,0
2022-07-30T00:58:01.306Z,0
2022-07-30T00:59:00.244Z,0
2022-07-30T01:00:03.088Z,0
2022-07-30T01:01:00.614Z,0
2022-07-30T01:02:00.515Z,0
2022-07-30T01:03:00.276Z,0
2022-07-30T01:04:00.259Z,0
2022-07-30T01:05:00.257Z,0
2022-07-30T01:06:00.237Z,0
2022-07-30T01:07:01.085Z,0
2022-07-30T01:08:00.265Z,0
2022-07-30T01:09:00.260Z,0
2022-07-30T01:10:00.266Z,0
2022-07-30T01:11:01.388Z,0
2022-07-30T01:12:00.277Z,0
2022-07-30T01:13:00.289Z,0
2022-07-30T01:14:00.265Z,0
2022-07-30T01:15:00.261Z,0
2022-07-30T01:16:00.283Z,0
2022-07-30T01:17:01.172Z,0
2022-07-30T01:18:00.297Z,0
2022-07-30T01:19:00.252Z,0
2022-07-30T01:20:00.366Z,0
2022-07-30T01:21:00.289Z,0
2022-07-30T01:22:00.283Z,0
2022-07-30T01:23:00.295Z,0
2022-07-30T01:24:00.274Z,0
2022-07-30T01:25:00.277Z,0
2022-07-30T01:26:02.366Z,0
2022-07-30T01:27:01.089Z,0
2022-07-30T01:28:00.338Z,0
2022-07-30T01:29:00.289Z,0
2022-07-30T01:30:00.304Z,0
2022-07-30T01:31:00.320Z,0
2022-07-30T01:32:00.617Z,0
2022-07-30T01:33:00.344Z,0
2022-07-30T01:34:02.843Z,0
2022-07-30T01:35:00.376Z,0
2022-07-30T01:36:00.302Z,0
2022-07-30T01:37:00.872Z,0
2022-07-30T01:38:06.347Z,0
2022-07-30T01:39:00.300Z,0
2022-07-30T01:40:00.371Z,0
2022-07-30T01:41:00.306Z,0
2022-07-30T01:42:00.311Z,0
2022-07-30T01:43:01.608Z,0
2022-07-30T01:44:00.333Z,0
2022-07-30T01:45:00.308Z,0
2022-07-30T01:46:00.606Z,0
2022-07-30T01:47:01.086Z,0
2022-07-30T01:48:00.343Z,0
2022-07-30T01:49:03.416Z,0
2022-07-30T01:50:00.328Z,0
2022-07-30T01:51:00.323Z,0
2022-07-30T01:52:00.344Z,0
2022-07-30T01:53:00.348Z,0
2022-07-30T01:54:03.338Z,0
2022-07-30T01:55:00.340Z,0
2022-07-30T01:56:00.332Z,0
2022-07-30T01:57:01.222Z,0
2022-07-30T01:58:00.346Z,0
2022-07-30T01:59:00.340Z,0
2022-07-30T02:00:03.698Z,0
2022-07-30T02:01:00.711Z,0
2022-07-30T02:02:00.343Z,0
2022-07-30T02:03:00.411Z,0
2022-07-30T02:04:01.875Z,0
2022-07-30T02:05:03.177Z,0
2022-07-30T02:06:00.405Z,0
2022-07-30T02:07:01.114Z,0
2022-07-30T02:08:02.456Z,0
2022-07-30T02:09:00.364Z,0
2022-07-30T02:10:00.391Z,0
2022-07-30T02:11:01.471Z,0
2022-07-30T02:12:00.430Z,0
2022-07-30T02:13:00.380Z,0
2022-07-30T02:14:00.355Z,0
2022-07-30T02:15:00.391Z,0
2022-07-30T02:16:03.323Z,0
2022-07-30T02:17:01.172Z,0
2022-07-30T02:18:02.981Z,0
2022-07-30T02:19:06.834Z,0
2022-07-30T02:20:00.399Z,0
2022-07-30T02:21:00.924Z,0
2022-07-30T02:22:05.381Z,0
2022-07-30T02:23:00.406Z,0
2022-07-30T02:24:00.380Z,0
2022-07-30T02:25:00.392Z,0
2022-07-30T02:26:00.388Z,0
2022-07-30T02:27:04.415Z,0
2022-07-30T02:28:00.426Z,0
2022-07-30T02:29:00.400Z,0
2022-07-30T02:30:00.396Z,0
2022-07-30T02:31:00.528Z,0
2022-07-30T02:32:00.568Z,0
2022-07-30T02:33:03.535Z,0
2022-07-30T02:34:00.398Z,0
2022-07-30T02:35:00.415Z,0
2022-07-30T02:36:00.413Z,0
2022-07-30T02:37:01.269Z,0
2022-07-30T02:38:02.232Z,0
2022-07-30T02:39:00.458Z,0
2022-07-30T02:40:00.403Z,0
2022-07-30T02:41:00.781Z,0
2022-07-30T02:42:00.398Z,0
2022-07-30T02:43:00.432Z,0
2022-07-30T02:44:03.332Z,0
2022-07-30T02:45:01.432Z,0
2022-07-30T02:46:00.427Z,0
2022-07-30T02:47:04.763Z,0
2022-07-30T02:48:00.463Z,0
2022-07-30T02:49:03.668Z,0
2022-07-30T02:50:00.453Z,0
2022-07-30T02:51:00.426Z,0
2022-07-30T02:52:01.205Z,0
2022-07-30T02:53:00.466Z,0
2022-07-30T02:54:00.866Z,0
2022-07-30T02:55:00.434Z,0
2022-07-30T02:56:00.444Z,0
2022-07-30T02:57:01.242Z,0
2022-07-30T02:58:00.470Z,0
2022-07-30T02:59:00.455Z,0
2022-07-30T03:00:03.955Z,0
2022-07-30T03:01:00.861Z,0
2022-07-30T03:02:00.750Z,0
2022-07-30T03:03:06.389Z,0
2022-07-30T03:04:00.479Z,0
2022-07-30T03:05:00.453Z,0
2022-07-30T03:06:05.118Z,0
2022-07-30T03:07:03.760Z,0
2022-07-30T03:08:00.481Z,0
2022-07-30T03:09:00.479Z,0
2022-07-30T03:10:04.465Z,0
2022-07-30T03:11:03.284Z,0
2022-07-30T03:12:00.498Z,0
2022-07-30T03:13:00.551Z,0
2022-07-30T03:14:00.476Z,0
2022-07-30T03:15:00.525Z,0
2022-07-30T03:16:00.771Z,0
2022-07-30T03:17:01.301Z,0
2022-07-30T03:18:02.402Z,0
2022-07-30T03:19:00.477Z,0
2022-07-30T03:20:00.485Z,0
2022-07-30T03:21:00.527Z,0
2022-07-30T03:22:09.517Z,0
2022-07-30T03:23:01.510Z,0
2022-07-30T03:24:00.536Z,0
2022-07-30T03:25:00.528Z,0
2022-07-30T03:26:01.436Z,0
2022-07-30T03:27:04.690Z,4
2022-07-30T03:28:01.568Z,4
2022-07-30T03:29:03.465Z,0
2022-07-30T03:30:00.545Z,0
2022-07-30T03:31:00.824Z,0
2022-07-30T03:32:02.509Z,4
2022-07-30T03:33:00.559Z,4
2022-07-30T03:34:01.089Z,0
2022-07-30T03:35:08.734Z,4
2022-07-30T03:36:00.680Z,4
2022-07-30T03:37:01.334Z,4
2022-07-30T03:38:03.389Z,4
2022-07-30T03:39:00.554Z,4
2022-07-30T03:40:00.528Z,4
2022-07-30T03:41:00.556Z,8
2022-07-30T03:42:02.415Z,4
2022-07-30T03:43:00.687Z,4
2022-07-30T03:44:00.554Z,8
2022-07-30T03:45:00.520Z,8
2022-07-30T03:46:00.526Z,4
2022-07-30T03:47:01.787Z,8
2022-07-30T03:48:00.539Z,8
2022-07-30T03:49:00.879Z,8
2022-07-30T03:50:00.527Z,12
2022-07-30T03:51:00.536Z,8
2022-07-30T03:52:00.565Z,12
2022-07-30T03:53:00.530Z,12
2022-07-30T03:54:00.546Z,12
2022-07-30T03:55:00.557Z,12
2022-07-30T03:56:00.551Z,12
2022-07-30T03:57:01.247Z,12
2022-07-30T03:58:00.547Z,12
2022-07-30T03:59:00.540Z,12
2022-07-30T04:00:00.556Z,16
2022-07-30T04:01:00.568Z,12
2022-07-30T04:02:09.878Z,12
2022-07-30T04:03:00.562Z,16
2022-07-30T04:04:00.897Z,16
2022-07-30T04:05:03.671Z,16
2022-07-30T04:06:00.576Z,16
2022-07-30T04:07:01.244Z,20
2022-07-30T04:08:02.140Z,20
2022-07-30T04:09:00.579Z,20
2022-07-30T04:10:03.496Z,24
2022-07-30T04:11:00.567Z,20
2022-07-30T04:12:00.578Z,24
2022-07-30T04:13:00.582Z,28
2022-07-30T04:14:01.904Z,28
2022-07-30T04:15:00.573Z,32
2022-07-30T04:16:48.478Z,36
2022-07-30T04:17:15.709Z,36
2022-07-30T04:18:12.189Z,40
2022-07-30T04:19:12.196Z,40
2022-07-30T04:20:15.313Z,40
2022-07-30T04:21:20.695Z,44
2022-07-30T04:22:13.496Z,40
2022-07-30T04:23:12.181Z,48
2022-07-30T04:24:12.668Z,48
2022-07-30T04:25:24.444Z,44
2022-07-30T04:26:12.196Z,48
2022-07-30T04:27:12.207Z,48
2022-07-30T04:28:12.524Z,48
2022-07-30T04:29:20.302Z,48
2022-07-30T04:30:12.221Z,48
2022-07-30T04:31:12.475Z,48
2022-07-30T04:32:12.189Z,52
2022-07-30T04:33:15.398Z,52
2022-07-30T04:34:12.236Z,56
2022-07-30T04:35:12.205Z,56
2022-07-30T04:36:16.473Z,60
2022-07-30T04:37:12.210Z,60
2022-07-30T04:38:12.243Z,60
2022-07-30T04:39:15.873Z,64
2022-07-30T04:40:12.208Z,68
2022-07-30T04:41:12.211Z,72
2022-07-30T04:42:12.219Z,72
2022-07-30T04:43:12.234Z,72
2022-07-30T04:44:15.584Z,72
2022-07-30T04:45:14.583Z,76
2022-07-30T04:46:12.519Z,84
2022-07-30T04:47:12.523Z,92
2022-07-30T04:48:12.241Z,96
2022-07-30T04:49:12.748Z,96
2022-07-30T04:50:15.018Z,96
2022-07-30T04:51:12.236Z,96
2022-07-30T04:52:12.237Z,96
2022-07-30T04:53:12.244Z,100
2022-07-30T04:54:18.124Z,96
2022-07-30T04:55:15.449Z,92
2022-07-30T04:56:12.251Z,88
2022-07-30T04:57:12.858Z,84
2022-07-30T04:58:12.249Z,84
2022-07-30T04:59:12.738Z,84
2022-07-30T05:00:12.253Z,80
2022-07-30T05:01:15.177Z,84
2022-07-30T05:02:12.792Z,76
2022-07-30T05:03:12.259Z,76
2022-07-30T05:04:12.279Z,84
2022-07-30T05:05:12.467Z,76
2022-07-30T05:06:15.603Z,72
2022-07-30T05:07:12.270Z,68
2022-07-30T05:08:12.260Z,64
2022-07-30T05:09:12.292Z,60
2022-07-30T05:10:12.298Z,60
2022-07-30T05:11:12.275Z,56
2022-07-30T05:12:15.328Z,56
2022-07-30T05:13:15.450Z,56
2022-07-30T05:14:13.677Z,60
2022-07-30T05:15:12.288Z,64
2022-07-30T05:16:12.708Z,68
2022-07-30T05:17:15.149Z,68
2022-07-30T05:18:12.276Z,72
2022-07-30T05:19:14.821Z,64
2022-07-30T05:20:12.293Z,64
2022-07-30T05:21:12.306Z,72
2022-07-30T05:22:13.708Z,72
2022-07-30T05:23:12.290Z,80
2022-07-30T05:24:15.378Z,80
2022-07-30T05:25:22.897Z,76
2022-07-30T05:26:12.321Z,76
2022-07-30T05:27:12.356Z,68
2022-07-30T05:28:15.078Z,68
2022-07-30T05:29:25.529Z,64
2022-07-30T05:30:17.564Z,72
2022-07-30T05:31:18.260Z,80
2022-07-30T05:32:14.143Z,72
2022-07-30T05:33:23.339Z,80
2022-07-30T05:34:12.359Z,88
2022-07-30T05:35:12.373Z,96
2022-07-30T05:36:12.340Z,100
2022-07-30T05:37:17.085Z,108
2022-07-30T05:38:12.337Z,116
2022-07-30T05:39:12.421Z,132
2022-07-30T05:40:12.359Z,128
2022-07-30T05:41:37.152Z,116
2022-07-30T05:42:16.578Z,112
2022-07-30T05:43:12.323Z,108
2022-07-30T05:44:12.483Z,104
2022-07-30T05:45:15.351Z,108
2022-07-30T05:46:13.651Z,112
2022-07-30T05:47:12.359Z,116
2022-07-30T05:48:12.351Z,128
2022-07-30T05:49:13.685Z,148
2022-07-30T05:50:12.498Z,168
2022-07-30T05:51:12.362Z,188
2022-07-30T05:52:13.066Z,232
2022-07-30T05:53:12.357Z,272
2022-07-30T05:54:12.362Z,288
2022-07-30T05:55:15.405Z,276
2022-07-30T05:56:12.354Z,244
2022-07-30T05:57:12.351Z,204
2022-07-30T05:58:12.353Z,184
2022-07-30T05:59:12.428Z,192
2022-07-30T06:00:15.545Z,220
2022-07-30T06:01:14.301Z,220
2022-07-30T06:02:12.359Z,208
2022-07-30T06:03:12.379Z,204
2022-07-30T06:04:12.603Z,216
2022-07-30T06:05:12.473Z,228
2022-07-30T06:06:12.456Z,232
2022-07-30T06:07:12.372Z,252
2022-07-30T06:08:12.573Z,272
2022-07-30T06:09:12.363Z,244
2022-07-30T06:10:12.390Z,212
2022-07-30T06:11:15.127Z,200
2022-07-30T06:12:12.377Z,200
2022-07-30T06:13:12.391Z,208
2022-07-30T06:14:12.399Z,228
2022-07-30T06:15:12.406Z,244
2022-07-30T06:16:12.676Z,244
2022-07-30T06:17:12.384Z,228
2022-07-30T06:18:13.311Z,216
2022-07-30T06:19:21.702Z,224
2022-07-30T06:20:12.414Z,248
2022-07-30T06:21:12.401Z,288
2022-07-30T06:22:16.826Z,340
2022-07-30T06:23:12.402Z,380
2022-07-30T06:24:12.400Z,600
2022-07-30T06:25:13.647Z,356
2022-07-30T06:26:12.419Z,316
2022-07-30T06:27:12.425Z,320
2022-07-30T06:28:43.353Z,324
2022-07-30T06:29:15.677Z,348
2022-07-30T06:30:12.569Z,420
2022-07-30T06:31:12.793Z,1108
2022-07-30T06:32:12.406Z,532
2022-07-30T06:33:15.485Z,844
2022-07-30T06:34:12.438Z,468
2022-07-30T06:35:12.460Z,488
2022-07-30T06:36:18.381Z,548
2022-07-30T06:37:12.452Z,584
2022-07-30T06:38:15.587Z,608
2022-07-30T06:39:12.651Z,644
2022-07-30T06:40:12.439Z,696
2022-07-30T06:41:12.425Z,1376
2022-07-30T06:42:12.441Z,972
2022-07-30T06:43:12.438Z,1348
2022-07-30T06:44:15.487Z,620
2022-07-30T06:45:12.486Z,524
2022-07-30T06:46:12.807Z,484
2022-07-30T06:47:15.788Z,460
2022-07-30T06:48:12.442Z,444
2022-07-30T06:49:14.008Z,400
2022-07-30T06:50:13.796Z,316
2022-07-30T06:51:12.502Z,252
2022-07-30T06:52:15.693Z,244
2022-07-30T06:53:12.485Z,256
2022-07-30T06:54:12.494Z,276
2022-07-30T06:55:15.270Z,304
2022-07-30T06:56:12.460Z,292
2022-07-30T06:57:13.273Z,260
2022-07-30T06:58:12.469Z,232
2022-07-30T06:59:12.466Z,200
2022-07-30T07:00:15.749Z,188
2022-07-30T07:01:21.143Z,196
2022-07-30T07:02:12.495Z,204
2022-07-30T07:03:16.785Z,208
2022-07-30T07:04:12.775Z,208
2022-07-30T07:05:12.502Z,224
2022-07-30T07:06:16.372Z,244
2022-07-30T07:07:56.444Z,308
2022-07-30T07:08:12.471Z,340
2022-07-30T07:09:12.499Z,416
2022-07-30T07:10:13.214Z,756
2022-07-30T07:11:15.804Z,784
2022-07-30T07:12:12.349Z,1072
2022-07-30T07:13:14.696Z,1372
2022-07-30T07:14:12.488Z,2052
2022-07-30T07:15:12.525Z,2040
2022-07-30T07:16:12.491Z,828
2022-07-30T07:17:16.148Z,780
2022-07-30T07:18:12.537Z,716
2022-07-30T07:19:15.769Z,708
2022-07-30T07:20:12.530Z,696
2022-07-30T07:21:14.789Z,688
2022-07-30T07:22:15.358Z,856
2022-07-30T07:23:21.984Z,1328
2022-07-30T07:24:12.502Z,904
2022-07-30T07:25:12.525Z,808
2022-07-30T07:26:12.503Z,1276
2022-07-30T07:27:22.167Z,588
2022-07-30T07:28:21.651Z,492
2022-07-30T07:29:12.511Z,524
2022-07-30T07:30:14.256Z,544
2022-07-30T07:32:03.021Z,716
2022-07-30T07:32:17.202Z,2048
2022-07-30T07:33:18.769Z,888
2022-07-30T07:34:24.872Z,652
2022-07-30T07:35:17.075Z,628
2022-07-30T07:36:17.068Z,640
2022-07-30T07:37:17.089Z,800
2022-07-30T07:38:17.067Z,784
2022-07-30T07:39:21.757Z,752
2022-07-30T07:40:17.370Z,612
2022-07-30T07:41:17.058Z,528
2022-07-30T07:42:17.064Z,504
2022-07-30T07:43:17.075Z,508
2022-07-30T07:44:17.089Z,564
2022-07-30T07:45:17.093Z,928
2022-07-30T07:46:17.303Z,788
2022-07-30T07:47:17.082Z,664
2022-07-30T07:48:17.065Z,680
2022-07-30T07:49:17.465Z,656
2022-07-30T07:50:17.116Z,704
2022-07-30T07:51:17.087Z,808
2022-07-30T07:52:17.085Z,880
2022-07-30T07:53:17.100Z,800
2022-07-30T07:54:28.076Z,656
2022-07-30T07:55:19.179Z,540
2022-07-30T07:56:18.378Z,432
2022-07-30T07:57:23.084Z,352
2022-07-30T07:58:29.428Z,308
2022-07-30T07:59:21.749Z,276
2022-07-30T08:00:17.127Z,252
2022-07-30T08:01:18.093Z,232
2022-07-30T08:02:17.426Z,216
2022-07-30T08:03:17.094Z,208
2022-07-30T08:04:17.556Z,216
2022-07-30T08:05:17.133Z,236
2022-07-30T08:06:24.847Z,280
2022-07-30T08:07:17.299Z,324
2022-07-30T08:08:17.111Z,388
2022-07-30T08:09:17.124Z,472
2022-07-30T08:10:17.136Z,604
2022-07-30T08:11:17.112Z,1028
2022-07-30T08:12:17.122Z,1832
2022-07-30T08:13:58.761Z,2792
2022-07-30T08:14:17.122Z,2672
2022-07-30T08:15:22.049Z,2064
2022-07-30T08:16:19.609Z,2216
2022-07-30T08:17:17.554Z,1616
2022-07-30T08:18:17.133Z,1932
2022-07-30T08:19:17.122Z,2584
2022-07-30T08:20:17.170Z,1936
2022-07-30T08:21:17.133Z,1500
2022-07-30T08:22:20.123Z,700
2022-07-30T08:23:17.128Z,572
2022-07-30T08:24:17.240Z,496
2022-07-30T08:25:28.762Z,460
2022-07-30T08:26:17.185Z,452
2022-07-30T08:27:17.191Z,448
2022-07-30T08:28:42.980Z,464
2022-07-30T08:29:23.568Z,476
2022-07-30T08:30:17.220Z,504
2022-07-30T08:31:17.155Z,560
2022-07-30T08:32:18.158Z,640
2022-07-30T08:33:20.004Z,752
2022-07-30T08:34:17.195Z,788
2022-07-30T08:35:17.213Z,704
2022-07-30T08:36:17.345Z,668
2022-07-30T08:37:20.769Z,668
2022-07-30T08:38:17.294Z,1656
2022-07-30T08:39:17.182Z,736
2022-07-30T08:40:17.202Z,684
2022-07-30T08:41:17.186Z,720
2022-07-30T08:42:17.195Z,624
2022-07-30T08:43:17.223Z,604
2022-07-30T08:44:22.613Z,612
2022-07-30T08:45:17.241Z,632
2022-07-30T08:46:17.232Z,648
2022-07-30T08:47:17.223Z,656
2022-07-30T08:48:21.713Z,616
2022-07-30T08:49:19.958Z,568
2022-07-30T08:50:22.349Z,508
2022-07-30T08:51:17.204Z,472
2022-07-30T08:52:17.218Z,460
2022-07-30T08:53:17.190Z,488
2022-07-30T08:54:17.232Z,512
2022-07-30T08:55:20.308Z,532
2022-07-30T08:56:17.204Z,508
2022-07-30T08:57:17.202Z,492
2022-07-30T08:58:22.709Z,492
2022-07-30T08:59:17.191Z,500
2022-07-30T09:00:18.410Z,552
2022-07-30T09:01:17.206Z,624
2022-07-30T09:02:31.757Z,724
2022-07-30T09:03:17.244Z,640
2022-07-30T09:04:17.230Z,664
2022-07-30T09:05:17.280Z,740
2022-07-30T09:06:20.365Z,924
2022-07-30T09:07:17.854Z,1508
2022-07-30T09:08:23.111Z,1244
2022-07-30T09:09:17.223Z,1204
2022-07-30T09:10:18.369Z,976
2022-07-30T09:11:20.061Z,1152
2022-07-30T09:12:17.232Z,820
2022-07-30T09:13:20.380Z,696
2022-07-30T09:14:17.244Z,636
2022-07-30T09:15:17.296Z,600
2022-07-30T09:16:17.677Z,600
2022-07-30T09:17:20.008Z,640
2022-07-30T09:18:17.265Z,692
2022-07-30T09:19:17.246Z,772
2022-07-30T09:20:17.378Z,1016
2022-07-30T09:21:17.310Z,1372
2022-07-30T09:22:20.294Z,1000
2022-07-30T09:23:17.238Z,872
2022-07-30T09:24:17.266Z,828
2022-07-30T09:25:17.276Z,912
2022-07-30T09:26:17.251Z,932
2022-07-30T09:27:17.251Z,1824
2022-07-30T09:28:25.603Z,1184
2022-07-30T09:29:17.285Z,1032
2022-07-30T09:30:17.374Z,1208
2022-07-30T09:31:17.505Z,1052
2022-07-30T09:32:17.271Z,1272
2022-07-30T09:33:25.670Z,1288
2022-07-30T09:34:17.268Z,980
2022-07-30T09:35:17.292Z,904
2022-07-30T09:36:20.772Z,884
2022-07-30T09:37:19.534Z,884
2022-07-30T09:38:17.290Z,880
2022-07-30T09:39:20.416Z,836
2022-07-30T09:40:17.451Z,820
2022-07-30T09:41:43.815Z,860
2022-07-30T09:42:18.165Z,868
2022-07-30T09:43:17.276Z,908
2022-07-30T09:44:18.452Z,1032
2022-07-30T09:45:17.313Z,1404
2022-07-30T09:46:17.290Z,1000
2022-07-30T09:47:17.322Z,932
2022-07-30T09:48:17.675Z,840
2022-07-30T09:49:17.904Z,864
2022-07-30T09:50:32.358Z,1700
2022-07-30T09:51:58.034Z,1632
2022-07-30T09:52:29.639Z,1592
2022-07-30T09:53:19.037Z,1600
2022-07-30T09:54:17.605Z,1628
2022-07-30T09:55:20.146Z,1640
2022-07-30T09:56:20.702Z,1628
2022-07-30T09:57:34.013Z,1624
2022-07-30T09:58:31.612Z,1604
2022-07-30T09:59:27.103Z,1592
2022-07-30T10:00:23.526Z,1596
2022-07-30T10:01:20.852Z,788
2022-07-30T10:02:18.667Z,1644
2022-07-30T10:03:46.482Z,1644
2022-07-30T10:04:18.478Z,1624
2022-07-30T10:05:26.165Z,1320
2022-07-30T10:06:21.593Z,1344
2022-07-30T10:07:29.787Z,1020
2022-07-30T10:08:23.749Z,1124
2022-07-30T10:09:25.272Z,1484
2022-07-30T10:10:25.170Z,876
2022-07-30T10:11:22.602Z,1136
2022-07-30T10:12:19.182Z,1016
2022-07-30T10:13:34.921Z,1692
2022-07-30T10:14:18.202Z,1712
2022-07-30T10:15:21.260Z,1708
2022-07-30T10:16:18.661Z,1688
2022-07-30T10:17:25.328Z,1476
2022-07-30T10:18:19.855Z,1440
2022-07-30T10:19:44.462Z,808
2022-07-30T10:20:19.425Z,776
2022-07-30T10:21:21.506Z,1224
2022-07-30T10:22:21.541Z,860
2022-07-30T10:23:32.647Z,1668
2022-07-30T10:24:17.809Z,1632
2022-07-30T10:25:27.733Z,1620
2022-07-30T10:26:22.212Z,1596
2022-07-30T10:27:21.033Z,1544
2022-07-30T10:28:18.749Z,1596
2022-07-30T10:29:21.346Z,1596
2022-07-30T10:30:28.076Z,1592
2022-07-30T10:32:01.967Z,1568
2022-07-30T10:32:18.065Z,1572
2022-07-30T10:33:49.018Z,1536
2022-07-30T10:34:19.015Z,1536
2022-07-30T10:35:43.607Z,1580
2022-07-30T10:36:18.815Z,1600
2022-07-30T10:37:20.780Z,648
2022-07-30T10:38:21.602Z,988
2022-07-30T10:39:17.771Z,1260
2022-07-30T10:40:19.901Z,1436
2022-07-30T10:41:47.921Z,892
2022-07-30T10:42:19.016Z,692
2022-07-30T10:43:22.784Z,604
2022-07-30T10:44:25.495Z,576
2022-07-30T10:45:24.437Z,544
2022-07-30T10:46:31.672Z,504
2022-07-30T10:47:17.918Z,468
2022-07-30T10:48:20.461Z,436
2022-07-30T10:49:24.577Z,388
2022-07-30T10:50:22.179Z,356
2022-07-30T10:51:46.453Z,316
2022-07-30T10:52:17.418Z,308
2022-07-30T10:53:18.003Z,288
2022-07-30T10:54:21.166Z,268
2022-07-30T10:55:41.005Z,240
2022-07-30T10:56:17.990Z,228
2022-07-30T10:57:47.502Z,208
2022-07-30T10:58:25.358Z,200
2022-07-30T10:59:19.577Z,192
2022-07-30T11:00:23.428Z,184
2022-07-30T11:01:32.884Z,184
2022-07-30T11:02:22.532Z,188
2022-07-30T11:03:40.874Z,196
2022-07-30T11:04:25.506Z,212
2022-07-30T11:05:27.476Z,228
2022-07-30T11:06:24.145Z,244
2022-07-30T11:07:23.915Z,264
2022-07-30T11:08:31.723Z,288
2022-07-30T11:09:19.411Z,304
2022-07-30T11:10:17.515Z,332
2022-07-30T11:12:18.957Z,372
2022-07-30T11:12:33.929Z,380
2022-07-30T11:13:41.231Z,408
2022-07-30T11:14:31.588Z,424
2022-07-30T11:15:40.154Z,444
2022-07-30T11:16:30.708Z,448
2022-07-30T11:17:29.501Z,460
2022-07-30T11:18:36.166Z,476
2022-07-30T11:20:06.348Z,536
2022-07-30T11:20:31.810Z,560
2022-07-30T11:21:34.619Z,596
2022-07-30T11:22:30.057Z,620
2022-07-30T11:23:30.788Z,692
2022-07-30T11:24:29.515Z,684
2022-07-30T11:25:57.319Z,604
2022-07-30T11:26:33.821Z,596
2022-07-30T11:27:31.652Z,580
2022-07-30T11:28:34.696Z,556
2022-07-30T11:29:57.680Z,532
2022-07-30T11:30:33.400Z,528
2022-07-30T11:32:09.324Z,544
2022-07-30T11:32:32.106Z,560
2022-07-30T11:33:39.400Z,636
2022-07-30T11:34:35.961Z,1620
2022-07-30T11:35:37.353Z,752
2022-07-30T11:36:31.236Z,1628
2022-07-30T11:37:54.386Z,1660
2022-07-30T11:38:29.534Z,1672
2022-07-30T11:39:46.957Z,1704
2022-07-30T11:40:36.432Z,760
2022-07-30T11:41:29.573Z,708
2022-07-30T11:42:29.564Z,580
2022-07-30T11:43:43.329Z,480
2022-07-30T11:44:29.540Z,468
2022-07-30T11:45:32.302Z,484
2022-07-30T11:46:38.635Z,500
2022-07-30T11:47:29.551Z,512
2022-07-30T11:48:29.556Z,540
2022-07-30T11:49:29.979Z,1408
2022-07-30T11:50:32.377Z,920
2022-07-30T11:51:29.584Z,532
2022-07-30T11:52:29.572Z,448
2022-07-30T11:53:30.263Z,396
2022-07-30T11:54:29.628Z,348
2022-07-30T11:55:29.555Z,304
2022-07-30T11:56:32.597Z,264
2022-07-30T11:57:43.011Z,236
2022-07-30T11:58:29.568Z,228
2022-07-30T11:59:29.575Z,228
2022-07-30T12:00:29.663Z,240
2022-07-30T12:01:32.984Z,276
2022-07-30T12:02:29.614Z,316
2022-07-30T12:03:32.231Z,368
2022-07-30T12:04:29.595Z,428
2022-07-30T12:05:29.584Z,544
2022-07-30T12:06:29.602Z,492
2022-07-30T12:07:29.587Z,476
2022-07-30T12:08:43.089Z,452
2022-07-30T12:09:32.216Z,424
2022-07-30T12:10:35.435Z,372
2022-07-30T12:11:29.618Z,320
2022-07-30T12:12:32.753Z,280
2022-07-30T12:13:56.040Z,240
2022-07-30T12:14:29.626Z,224
2022-07-30T12:15:29.616Z,204
2022-07-30T12:16:29.647Z,200
2022-07-30T12:17:29.867Z,196
2022-07-30T12:18:33.810Z,208
2022-07-30T12:19:29.615Z,224
2022-07-30T12:20:29.625Z,248
2022-07-30T12:21:29.647Z,276
2022-07-30T12:22:29.616Z,312
2022-07-30T12:23:32.788Z,344
2022-07-30T12:24:29.629Z,368
2022-07-30T12:25:29.641Z,400
2022-07-30T12:26:31.410Z,440
2022-07-30T12:27:29.628Z,488
2022-07-30T12:28:29.634Z,540
2022-07-30T12:29:29.630Z,604
2022-07-30T12:30:29.621Z,684
2022-07-30T12:31:29.693Z,696
2022-07-30T12:32:29.634Z,784
2022-07-30T12:33:29.664Z,1272
2022-07-30T12:34:29.650Z,1296
2022-07-30T12:35:29.638Z,1480
2022-07-30T12:36:29.675Z,1524
2022-07-30T12:37:29.983Z,1500
2022-07-30T12:38:29.648Z,1528
2022-07-30T12:39:32.710Z,1468
2022-07-30T12:40:29.659Z,748
2022-07-30T12:41:29.678Z,684
2022-07-30T12:42:29.667Z,672
2022-07-30T12:43:29.657Z,652
2022-07-30T12:44:29.661Z,1208
2022-07-30T12:45:29.694Z,880
2022-07-30T12:46:29.689Z,780
2022-07-30T12:47:29.678Z,1364
2022-07-30T12:48:32.129Z,1372
2022-07-30T12:49:51.717Z,1372
2022-07-30T12:50:32.453Z,1348
2022-07-30T12:51:29.966Z,1316
2022-07-30T12:52:36.928Z,1324
2022-07-30T12:53:29.677Z,1360
2022-07-30T12:54:29.714Z,1352
2022-07-30T12:55:32.689Z,1336
2022-07-30T12:56:29.704Z,1316
2022-07-30T12:57:29.678Z,1336
2022-07-30T12:58:29.687Z,1352
2022-07-30T12:59:30.336Z,1352
2022-07-30T13:00:29.694Z,1340
2022-07-30T13:01:31.230Z,1308
2022-07-30T13:02:31.309Z,1288
2022-07-30T13:03:29.704Z,900
2022-07-30T13:04:29.699Z,1320
2022-07-30T13:05:29.704Z,1208
2022-07-30T13:06:32.558Z,552
2022-07-30T13:07:29.699Z,1344
2022-07-30T13:08:29.922Z,1364
2022-07-30T13:09:29.704Z,1348
2022-07-30T13:10:36.186Z,1288
2022-07-30T13:11:29.718Z,1332
2022-07-30T13:12:31.565Z,1332
2022-07-30T13:13:29.723Z,1292
2022-07-30T13:14:33.544Z,1304
2022-07-30T13:15:29.721Z,1324
2022-07-30T13:16:29.747Z,784
2022-07-30T13:17:32.937Z,1272
2022-07-30T13:18:29.718Z,1308
2022-07-30T13:19:29.725Z,1308
2022-07-30T13:20:29.858Z,1300
2022-07-30T13:21:29.766Z,1292
2022-07-30T13:22:31.352Z,1296
2022-07-30T13:23:32.580Z,1316
2022-07-30T13:24:29.752Z,1228
2022-07-30T13:25:43.065Z,860
2022-07-30T13:26:29.733Z,1072
2022-07-30T13:27:29.741Z,840
2022-07-30T13:28:32.583Z,1276
2022-07-30T13:29:29.756Z,1128
2022-07-30T13:30:29.758Z,804
2022-07-30T13:31:44.713Z,500
2022-07-30T13:32:29.765Z,500
2022-07-30T13:33:29.758Z,512
2022-07-30T13:34:29.765Z,544
2022-07-30T13:35:29.748Z,912
2022-07-30T13:36:29.776Z,548
2022-07-30T13:37:44.378Z,520
2022-07-30T13:38:29.761Z,516
2022-07-30T13:39:32.637Z,524
2022-07-30T13:40:29.775Z,1088
2022-07-30T13:41:29.800Z,548
2022-07-30T13:42:29.801Z,552
2022-07-30T13:43:29.765Z,564
2022-07-30T13:44:29.773Z,576
2022-07-30T13:45:29.758Z,540
2022-07-30T13:46:29.779Z,524
2022-07-30T13:47:29.800Z,524
2022-07-30T13:48:29.780Z,540
2022-07-30T13:49:32.657Z,596
2022-07-30T13:50:32.839Z,548
2022-07-30T13:51:29.798Z,552
2022-07-30T13:52:29.820Z,536
2022-07-30T13:53:29.807Z,504
2022-07-30T13:54:29.801Z,476
2022-07-30T13:55:29.872Z,444
2022-07-30T13:56:30.360Z,420
2022-07-30T13:57:29.827Z,412
2022-07-30T13:58:34.121Z,416
2022-07-30T13:59:29.810Z,436
2022-07-30T14:00:29.814Z,520
2022-07-30T14:01:33.045Z,1216
2022-07-30T14:02:30.435Z,728
2022-07-30T14:03:29.965Z,1132